createdAt,value
2018-05-21T00:00:04.034Z,101084.73
2018-05-21T00:01:10.260Z,101088.21
2018-05-21T00:02:16.775Z,101081.39
2018-05-21T00:03:23.098Z,101084.59
2018-05-21T00:04:29.403Z,101088.22
2018-05-21T00:05:36.397Z,101083.95
2018-05-21T00:06:42.553Z,101086.69
2018-05-21T00:07:50.703Z,101078.92
2018-05-21T00:08:57.775Z,101081.75
2018-05-21T00:10:04.581Z,101075.42
2018-05-21T00:11:13.505Z,101076.41
2018-05-21T00:12:19.726Z,101071.77
2018-05-21T00:13:27.779Z,101071.12
2018-05-21T00:14:35.878Z,101069.20
2018-05-21T00:15:44.828Z,101068.22
2018-05-21T00:16:52.909Z,101074.73
2018-05-21T00:18:00.434Z,101072.77
2018-05-21T00:19:07.393Z,101075.34
2018-05-21T00:20:14.018Z,101070.78
2018-05-21T00:21:20.590Z,101067.22
2018-05-21T00:22:26.867Z,101067.09
2018-05-21T00:23:33.089Z,101065.18
2018-05-21T00:24:39.396Z,101067.41
2018-05-21T00:25:45.706Z,101064.45
2018-05-21T00:26:57.002Z,101065.66
2018-05-21T00:28:03.226Z,101067.16
2018-05-21T00:29:10.179Z,101063.31
2018-05-21T00:30:31.293Z,101061.20
2018-05-21T00:31:37.473Z,101063.59
2018-05-21T00:32:43.744Z,101062.69
2018-05-21T00:33:50.071Z,101061.00
2018-05-21T00:34:56.381Z,101064.27
2018-05-21T00:36:02.633Z,101063.95
2018-05-21T00:37:08.552Z,101054.41
2018-05-21T00:38:17.493Z,101060.42
2018-05-21T00:39:23.980Z,101058.25
2018-05-21T00:40:30.274Z,101064.78
2018-05-21T00:41:36.601Z,101070.95
2018-05-21T00:42:42.906Z,101062.00
2018-05-21T00:43:50.631Z,101067.35
2018-05-21T00:44:56.843Z,101069.25
2018-05-21T00:46:03.147Z,101062.97
2018-05-21T00:47:09.369Z,101066.93
2018-05-21T00:48:15.665Z,101065.47
2018-05-21T00:49:21.876Z,101066.84
2018-05-21T00:50:28.120Z,101068.71
2018-05-21T00:51:40.296Z,101068.66
2018-05-21T00:52:46.472Z,101070.48
2018-05-21T00:53:52.786Z,101064.90
2018-05-21T00:55:10.289Z,101070.98
2018-05-21T00:56:16.237Z,101071.28
2018-05-21T00:57:22.477Z,101072.18
2018-05-21T00:58:28.774Z,101066.64
2018-05-21T00:59:35.067Z,101065.30
2018-05-21T01:00:41.104Z,101067.07
2018-05-21T01:01:46.262Z,101064.28
2018-05-21T01:02:52.594Z,101070.13
2018-05-21T01:03:58.896Z,101069.71
2018-05-21T01:05:05.125Z,101063.47
2018-05-21T01:06:11.406Z,101064.41
2018-05-21T01:07:17.642Z,101064.14
2018-05-21T01:08:23.928Z,101062.19
2018-05-21T01:09:30.287Z,101060.25
2018-05-21T01:10:36.599Z,101062.56
2018-05-21T01:11:42.875Z,101065.19
2018-05-21T01:12:49.177Z,101063.27
2018-05-21T01:13:55.373Z,101063.72
2018-05-21T01:15:12.109Z,101066.05
2018-05-21T01:16:18.042Z,101058.62
2018-05-21T01:17:24.351Z,101061.40
2018-05-21T01:18:30.406Z,101060.68
2018-05-21T01:19:36.302Z,101061.06
2018-05-21T01:20:42.606Z,101053.22
2018-05-21T01:21:48.877Z,101060.15
2018-05-21T01:22:55.103Z,101054.17
2018-05-21T01:24:01.445Z,101057.32
2018-05-21T01:25:07.740Z,101055.17
2018-05-21T01:26:14.130Z,101053.73
2018-05-21T01:27:20.425Z,101057.19
2018-05-21T01:28:26.637Z,101051.54
2018-05-21T01:29:32.877Z,101052.18
2018-05-21T01:30:39.213Z,101050.44
2018-05-21T01:31:45.478Z,101052.45
2018-05-21T01:32:51.719Z,101052.31
2018-05-21T01:33:58.027Z,101052.03
2018-05-21T01:35:03.942Z,101050.85
2018-05-21T01:36:11.135Z,101049.12
2018-05-21T01:37:17.198Z,101049.27
2018-05-21T01:38:23.451Z,101055.28
2018-05-21T01:39:29.689Z,101052.12
2018-05-21T01:40:35.981Z,101049.78
2018-05-21T01:41:42.496Z,101045.22
2018-05-21T01:42:48.828Z,101047.14
2018-05-21T01:43:55.125Z,101050.50
2018-05-21T01:45:01.433Z,101047.00
2018-05-21T01:46:08.579Z,101044.94
2018-05-21T01:47:14.766Z,101045.11
2018-05-21T01:48:20.956Z,101049.80
2018-05-21T01:49:27.194Z,101040.05
2018-05-21T01:50:33.554Z,101041.91
2018-05-21T01:51:39.814Z,101036.67
2018-05-21T01:52:46.109Z,101036.79
2018-05-21T01:53:52.357Z,101039.02
2018-05-21T01:55:04.898Z,101037.41
2018-05-21T01:56:11.691Z,101028.25
2018-05-21T01:57:17.908Z,101031.52
2018-05-21T01:58:24.124Z,101033.81
2018-05-21T01:59:30.114Z,101030.33
2018-05-21T02:00:36.424Z,101034.41
2018-05-21T02:01:43.663Z,101034.56
2018-05-21T02:02:49.599Z,101035.53
2018-05-21T02:03:55.930Z,101032.12
2018-05-21T02:05:02.207Z,101035.45
2018-05-21T02:06:08.542Z,101030.39
2018-05-21T02:07:14.819Z,101032.95
2018-05-21T02:08:21.387Z,101027.25
2018-05-21T02:09:27.896Z,101029.58
2018-05-21T02:10:34.196Z,101029.09
2018-05-21T02:11:40.491Z,101032.02
2018-05-21T02:12:47.673Z,101021.66
2018-05-21T02:13:53.561Z,101025.86
2018-05-21T02:14:59.589Z,101026.57
2018-05-21T02:16:05.966Z,101029.48
2018-05-21T02:17:13.026Z,101030.73
2018-05-21T02:18:19.808Z,101028.61
2018-05-21T02:19:26.118Z,101027.94
2018-05-21T02:20:32.402Z,101025.86
2018-05-21T02:21:38.350Z,101028.83
2018-05-21T02:22:44.612Z,101026.02
2018-05-21T02:23:50.981Z,101029.47
2018-05-21T02:24:57.248Z,101023.14
2018-05-21T02:26:03.460Z,101022.30
2018-05-21T02:27:09.804Z,101019.31
2018-05-21T02:28:16.094Z,101023.25
2018-05-21T02:29:22.321Z,101016.72
2018-05-21T02:30:28.625Z,101019.08
2018-05-21T02:31:34.973Z,101017.84
2018-05-21T02:32:41.261Z,101013.74
2018-05-21T02:33:47.667Z,101019.94
2018-05-21T02:34:53.997Z,101016.27
2018-05-21T02:36:00.268Z,101017.41
2018-05-21T02:37:14.131Z,101018.64
2018-05-21T02:38:21.065Z,101016.20
2018-05-21T02:39:27.308Z,101013.46
2018-05-21T02:40:33.618Z,101016.48
2018-05-21T02:41:39.936Z,101018.00
2018-05-21T02:42:46.247Z,101014.95
2018-05-21T02:43:52.540Z,101014.27
2018-05-21T02:44:58.744Z,101011.05
2018-05-21T02:46:04.720Z,101016.52
2018-05-21T02:47:10.964Z,101022.44
2018-05-21T02:48:17.420Z,101015.72
2018-05-21T02:49:24.858Z,101017.00
2018-05-21T02:50:31.129Z,101013.33
2018-05-21T02:51:37.369Z,101015.27
2018-05-21T02:52:43.829Z,101015.83
2018-05-21T02:53:50.041Z,101018.17
2018-05-21T02:54:57.206Z,101019.70
2018-05-21T02:56:03.744Z,101013.94
2018-05-21T02:57:10.720Z,101016.88
2018-05-21T02:58:16.944Z,101016.03
2018-05-21T02:59:23.284Z,101017.96
2018-05-21T03:00:29.263Z,101016.72
2018-05-21T03:01:35.713Z,101010.74
2018-05-21T03:02:42.857Z,101017.45
2018-05-21T03:03:49.258Z,101022.30
2018-05-21T03:04:55.558Z,101013.38
2018-05-21T03:06:02.082Z,101018.15
2018-05-21T03:07:08.949Z,101018.02
2018-05-21T03:08:15.376Z,101009.49
2018-05-21T03:09:22.342Z,101011.41
2018-05-21T03:10:28.813Z,101009.82
2018-05-21T03:11:35.086Z,101011.89
2018-05-21T03:12:42.357Z,101015.34
2018-05-21T03:13:49.174Z,101011.59
2018-05-21T03:14:55.408Z,101014.91
2018-05-21T03:16:01.652Z,101014.34
2018-05-21T03:17:07.943Z,101014.57
2018-05-21T03:18:14.230Z,101010.55
2018-05-21T03:19:21.306Z,101012.45
2018-05-21T03:20:28.507Z,101011.89
2018-05-21T03:21:34.803Z,101013.47
2018-05-21T03:22:41.057Z,101007.66
2018-05-21T03:23:47.424Z,101014.20
2018-05-21T03:24:54.185Z,101011.28
2018-05-21T03:26:00.465Z,101008.17
2018-05-21T03:27:06.707Z,101011.05
2018-05-21T03:28:13.014Z,101012.12
2018-05-21T03:29:20.218Z,101013.25
2018-05-21T03:30:26.424Z,101013.89
2018-05-21T03:31:32.641Z,101015.94
2018-05-21T03:32:38.889Z,101020.63
2018-05-21T03:33:45.492Z,101023.45
2018-05-21T03:34:51.901Z,101022.39
2018-05-21T03:35:58.006Z,101020.56
2018-05-21T03:37:04.327Z,101021.52
2018-05-21T03:38:10.616Z,101022.98
2018-05-21T03:39:17.976Z,101015.33
2018-05-21T03:40:25.036Z,101018.95
2018-05-21T03:41:30.952Z,101022.94
2018-05-21T03:42:37.224Z,101016.53
2018-05-21T03:43:44.040Z,101018.62
2018-05-21T03:44:50.319Z,101025.45
2018-05-21T03:45:56.542Z,101024.49
2018-05-21T03:47:02.726Z,101016.98
2018-05-21T03:48:09.016Z,101019.66
2018-05-21T03:49:15.257Z,101026.06
2018-05-21T03:50:21.466Z,101026.27
2018-05-21T03:51:28.724Z,101026.97
2018-05-21T03:52:35.066Z,101027.45
2018-05-21T03:53:41.518Z,101027.31
2018-05-21T03:54:47.753Z,101027.70
2018-05-21T03:55:54.930Z,101025.30
2018-05-21T03:57:01.560Z,101028.47
2018-05-21T03:58:19.181Z,101020.91
2018-05-21T03:59:36.149Z,101025.66
2018-05-21T04:02:33.565Z,101024.04
2018-05-21T04:03:50.886Z,101024.06
2018-05-21T04:04:57.171Z,101029.31
2018-05-21T04:06:03.457Z,101030.95
2018-05-21T04:07:09.781Z,101030.59
2018-05-21T04:08:16.114Z,101032.47
2018-05-21T04:09:22.416Z,101030.70
2018-05-21T04:10:28.743Z,101031.83
2018-05-21T04:11:35.470Z,101031.24
2018-05-21T04:12:41.700Z,101032.92
2018-05-21T04:13:47.650Z,101034.25
2018-05-21T04:14:53.991Z,101031.76
2018-05-21T04:16:00.245Z,101031.97
2018-05-21T04:17:05.853Z,101030.25
2018-05-21T04:18:12.633Z,101036.68
2018-05-21T04:19:18.908Z,101031.97
2018-05-21T04:20:25.204Z,101027.42
2018-05-21T04:21:31.773Z,101028.70
2018-05-21T04:22:38.066Z,101034.59
2018-05-21T04:23:44.483Z,101032.12
2018-05-21T04:24:50.787Z,101028.45
2018-05-21T04:25:57.112Z,101030.63
2018-05-21T04:27:04.280Z,101028.16
2018-05-21T04:28:11.280Z,101034.13
2018-05-21T04:29:17.544Z,101033.45
2018-05-21T04:30:23.863Z,101031.34
2018-05-21T04:31:30.157Z,101034.69
2018-05-21T04:32:36.421Z,101038.52
2018-05-21T04:33:42.404Z,101035.81
2018-05-21T04:34:49.223Z,101035.74
2018-05-21T04:35:55.548Z,101039.23
2018-05-21T04:37:01.868Z,101032.89
2018-05-21T04:38:08.342Z,101040.39
2018-05-21T04:39:14.662Z,101036.36
2018-05-21T04:40:21.005Z,101037.09
2018-05-21T04:41:27.304Z,101033.16
2018-05-21T04:42:33.859Z,101039.18
2018-05-21T04:43:40.071Z,101034.69
2018-05-21T04:44:46.349Z,101037.14
2018-05-21T04:45:52.737Z,101028.05
2018-05-21T04:46:59.021Z,101035.77
2018-05-21T04:48:05.464Z,101034.13
2018-05-21T04:49:11.802Z,101034.04
2018-05-21T04:50:18.245Z,101036.41
2018-05-21T04:51:24.624Z,101029.23
2018-05-21T04:52:30.913Z,101039.72
2018-05-21T04:53:37.152Z,101031.55
2018-05-21T04:54:43.474Z,101032.97
2018-05-21T04:55:49.737Z,101032.37
2018-05-21T04:56:56.049Z,101030.91
2018-05-21T04:58:02.311Z,101038.56
2018-05-21T04:59:08.573Z,101036.69
2018-05-21T05:00:14.778Z,101036.14
2018-05-21T05:01:21.033Z,101034.82
2018-05-21T05:02:27.310Z,101040.78
2018-05-21T05:03:34.577Z,101035.28
2018-05-21T05:04:40.784Z,101040.05
2018-05-21T05:05:47.106Z,101028.03
2018-05-21T05:06:54.060Z,101032.70
2018-05-21T05:08:06.030Z,101033.13
2018-05-21T05:09:13.156Z,101028.23
2018-05-21T05:10:20.254Z,101031.34
2018-05-21T05:11:28.192Z,101028.92
2018-05-21T05:12:35.479Z,101032.93
2018-05-21T05:13:42.451Z,101034.82
2018-05-21T05:14:49.796Z,101026.50
2018-05-21T05:15:56.682Z,101027.70
2018-05-21T05:17:04.906Z,101027.81
2018-05-21T05:18:12.264Z,101030.94
2018-05-21T05:19:19.441Z,101029.45
2018-05-21T05:20:26.798Z,101029.06
2018-05-21T05:21:34.623Z,101026.86
2018-05-21T05:22:41.859Z,101029.69
2018-05-21T05:23:49.129Z,101029.48
2018-05-21T05:24:59.901Z,101028.44
2018-05-21T05:26:07.241Z,101028.26
2018-05-21T05:27:14.306Z,101029.98
2018-05-21T05:28:20.885Z,101025.29
2018-05-21T05:29:28.037Z,101023.36
2018-05-21T05:30:36.070Z,101025.56
2018-05-21T05:31:44.522Z,101026.83
2018-05-21T05:32:51.577Z,101025.86
2018-05-21T05:33:59.823Z,101025.95
2018-05-21T05:35:12.995Z,101025.86
2018-05-21T05:36:19.912Z,101019.37
2018-05-21T05:37:27.562Z,101025.78
2018-05-21T05:38:34.379Z,101020.67
2018-05-21T05:39:42.152Z,101025.24
2018-05-21T05:40:49.373Z,101019.34
2018-05-21T05:41:55.946Z,101022.52
2018-05-21T05:43:02.688Z,101024.11
2018-05-21T05:44:10.440Z,101021.28
2018-05-21T05:45:17.366Z,101017.28
2018-05-21T05:46:24.897Z,101017.13
2018-05-21T05:47:31.961Z,101022.67
2018-05-21T05:48:38.576Z,101019.68
2018-05-21T05:49:45.309Z,101018.98
2018-05-21T05:50:52.557Z,101018.01
2018-05-21T05:52:00.087Z,101022.87
2018-05-21T05:53:07.480Z,101016.78
2018-05-21T05:54:14.260Z,101015.77
2018-05-21T05:55:22.234Z,101019.30
2018-05-21T05:56:29.828Z,101017.34
2018-05-21T05:57:36.414Z,101014.83
2018-05-21T05:58:43.979Z,101012.28
2018-05-21T05:59:51.042Z,101021.70
2018-05-21T06:00:57.911Z,101016.67
2018-05-21T06:02:04.630Z,101010.69
2018-05-21T06:03:10.764Z,101004.80
2018-05-21T06:04:17.559Z,101005.12
2018-05-21T06:05:24.281Z,101009.09
2018-05-21T06:06:31.957Z,101004.98
2018-05-21T06:07:41.522Z,101009.08
2018-05-21T06:08:48.640Z,101008.49
2018-05-21T06:09:54.875Z,101010.90
2018-05-21T06:11:02.154Z,101008.65
2018-05-21T06:12:09.753Z,101007.02
2018-05-21T06:13:17.065Z,101007.07
2018-05-21T06:14:24.103Z,101006.62
2018-05-21T06:15:30.405Z,101007.13
2018-05-21T06:16:36.666Z,101004.95
2018-05-21T06:17:42.973Z,101000.02
2018-05-21T06:18:49.393Z,101001.52
2018-05-21T06:19:55.623Z,100994.98
2018-05-21T06:21:01.890Z,100999.71
2018-05-21T06:22:08.088Z,100999.26
2018-05-21T06:23:13.980Z,100995.56
2018-05-21T06:24:20.672Z,100997.18
2018-05-21T06:25:27.760Z,100996.41
2018-05-21T06:26:36.362Z,100991.77
2018-05-21T06:27:44.363Z,100990.05
2018-05-21T06:28:50.709Z,100987.27
2018-05-21T06:29:57.189Z,100991.47
2018-05-21T06:31:03.884Z,100990.59
2018-05-21T06:32:10.814Z,100995.73
2018-05-21T06:33:17.380Z,100991.62
2018-05-21T06:34:23.955Z,100986.67
2018-05-21T06:35:30.672Z,100992.27
2018-05-21T06:36:37.229Z,100990.50
2018-05-21T06:37:43.574Z,100990.91
2018-05-21T06:38:51.025Z,100989.04
2018-05-21T06:39:57.843Z,100988.81
2018-05-21T06:41:04.348Z,100991.09
2018-05-21T06:42:11.169Z,100983.63
2018-05-21T06:43:18.229Z,100980.05
2018-05-21T06:44:25.211Z,100980.96
2018-05-21T06:45:31.409Z,100985.50
2018-05-21T06:46:37.982Z,100979.26
2018-05-21T06:47:44.659Z,100977.48
2018-05-21T06:48:50.997Z,100979.91
2018-05-21T06:49:58.320Z,100979.52
2018-05-21T06:51:05.916Z,100978.63
2018-05-21T06:52:13.331Z,100983.92
2018-05-21T06:53:20.308Z,100983.03
2018-05-21T06:54:26.771Z,100985.11
2018-05-21T06:55:33.363Z,100984.45
2018-05-21T06:56:40.095Z,100982.55
2018-05-21T06:57:46.529Z,100986.48
2018-05-21T06:58:54.140Z,100981.88
2018-05-21T07:00:00.486Z,100985.16
2018-05-21T07:01:07.587Z,100986.88
2018-05-21T07:02:13.925Z,100979.46
2018-05-21T07:03:20.983Z,100977.62
2018-05-21T07:04:27.281Z,100981.60
2018-05-21T07:05:33.604Z,100978.72
2018-05-21T07:06:40.156Z,100977.11
2018-05-21T07:07:46.454Z,100981.71
2018-05-21T07:08:52.811Z,100975.58
2018-05-21T07:09:59.060Z,100970.23
2018-05-21T07:11:11.473Z,100972.56
2018-05-21T07:12:17.683Z,100970.25
2018-05-21T07:13:24.981Z,100965.16
2018-05-21T07:14:31.808Z,100965.53
2018-05-21T07:15:38.159Z,100966.03
2018-05-21T07:16:44.415Z,100964.44
2018-05-21T07:17:50.660Z,100960.78
2018-05-21T07:18:56.932Z,100964.66
2018-05-21T07:20:03.194Z,100964.21
2018-05-21T07:21:10.577Z,100961.33
2018-05-21T07:22:17.008Z,100968.15
2018-05-21T07:23:23.020Z,100958.33
2018-05-21T07:24:29.399Z,100958.72
2018-05-21T07:25:35.966Z,100959.19
2018-05-21T07:26:42.244Z,100962.63
2018-05-21T07:27:48.449Z,100957.12
2018-05-21T07:28:55.791Z,100950.45
2018-05-21T07:30:02.845Z,100951.62
2018-05-21T07:31:09.136Z,100953.84
2018-05-21T07:32:17.857Z,100949.88
2018-05-21T07:33:28.958Z,100947.29
2018-05-21T07:34:35.306Z,100941.94
2018-05-21T07:35:41.576Z,100942.79
2018-05-21T07:36:47.868Z,100943.65
2018-05-21T07:37:54.096Z,100945.75
2018-05-21T07:39:00.382Z,100945.49
2018-05-21T07:40:06.842Z,100942.95
2018-05-21T07:41:13.133Z,100938.91
2018-05-21T07:42:19.451Z,100936.60
2018-05-21T07:43:25.753Z,100937.89
2018-05-21T07:44:33.114Z,100932.16
2018-05-21T07:45:40.054Z,100932.58
2018-05-21T07:46:46.309Z,100939.05
2018-05-21T07:47:52.613Z,100930.66
2018-05-21T07:48:58.877Z,100931.20
2018-05-21T07:50:04.902Z,100931.98
2018-05-21T07:51:11.143Z,100926.35
2018-05-21T07:52:17.457Z,100923.36
2018-05-21T07:53:26.688Z,100923.66
2018-05-21T07:54:32.876Z,100912.02
2018-05-21T07:55:39.237Z,100914.17
2018-05-21T07:56:45.492Z,100918.13
2018-05-21T07:57:51.765Z,100916.94
2018-05-21T07:58:58.276Z,100916.62
2018-05-21T08:00:04.300Z,100915.05
2018-05-21T08:01:10.545Z,100924.41
2018-05-21T08:02:17.366Z,100916.09
2018-05-21T08:03:23.654Z,100915.72
2018-05-21T08:04:29.951Z,100914.81
2018-05-21T08:05:36.248Z,100914.91
2018-05-21T08:06:42.627Z,100922.02
2018-05-21T08:07:48.899Z,100915.69
2018-05-21T08:08:55.102Z,100920.28
2018-05-21T08:10:01.321Z,100914.21
2018-05-21T08:11:07.627Z,100915.05
2018-05-21T08:12:13.925Z,100909.34
2018-05-21T08:13:20.363Z,100905.91
2018-05-21T08:14:26.617Z,100916.62
2018-05-21T08:15:32.805Z,100913.20
2018-05-21T08:16:39.124Z,100913.17
2018-05-21T08:17:45.397Z,100912.84
2018-05-21T08:18:51.598Z,100909.55
2018-05-21T08:19:57.816Z,100907.36
2018-05-21T08:21:03.825Z,100904.19
2018-05-21T08:22:10.132Z,100904.52
2018-05-21T08:23:16.442Z,100894.97
2018-05-21T08:24:23.379Z,100898.45
2018-05-21T08:25:29.254Z,100901.92
2018-05-21T08:26:35.513Z,100901.06
2018-05-21T08:27:41.782Z,100896.84
2018-05-21T08:28:48.098Z,100898.16
2018-05-21T08:29:54.289Z,100893.16
2018-05-21T08:31:00.305Z,100895.11
2018-05-21T08:32:06.599Z,100895.27
2018-05-21T08:33:12.932Z,100897.27
2018-05-21T08:34:19.433Z,100887.94
2018-05-21T08:35:27.202Z,100887.49
2018-05-21T08:36:34.269Z,100886.98
2018-05-21T08:37:41.148Z,100888.08
2018-05-21T08:38:47.370Z,100882.98
2018-05-21T08:39:53.675Z,100880.14
2018-05-21T08:40:59.939Z,100879.64
2018-05-21T08:42:06.205Z,100876.12
2018-05-21T08:43:12.590Z,100876.59
2018-05-21T08:44:18.970Z,100882.92
2018-05-21T08:45:25.277Z,100871.98
2018-05-21T08:46:31.577Z,100869.95
2018-05-21T08:47:38.230Z,100873.61
2018-05-21T08:48:45.785Z,100877.16
2018-05-21T08:49:52.222Z,100874.77
2018-05-21T08:50:59.512Z,100871.25
2018-05-21T08:52:06.743Z,100869.69
2018-05-21T08:53:13.537Z,100866.91
2018-05-21T08:54:20.206Z,100865.92
2018-05-21T08:55:26.098Z,100864.97
2018-05-21T08:56:37.733Z,100860.59
2018-05-21T08:57:49.312Z,100866.91
2018-05-21T08:58:56.243Z,100862.42
2018-05-21T09:00:02.586Z,100861.69
2018-05-21T09:01:09.112Z,100861.51
2018-05-21T09:02:15.309Z,100853.38
2018-05-21T09:03:21.976Z,100856.95
2018-05-21T09:04:28.220Z,100860.99
2018-05-21T09:05:34.669Z,100856.12
2018-05-21T09:06:42.510Z,100854.07
2018-05-21T09:07:48.801Z,100844.91
2018-05-21T09:08:55.077Z,100848.11
2018-05-21T09:10:01.388Z,100841.44
2018-05-21T09:11:08.552Z,100847.17
2018-05-21T09:12:14.486Z,100843.94
2018-05-21T09:13:20.836Z,100851.75
2018-05-21T09:14:27.085Z,100849.34
2018-05-21T09:15:33.385Z,100849.56
2018-05-21T09:16:39.748Z,100842.41
2018-05-21T09:17:46.325Z,100845.62
2018-05-21T09:18:52.608Z,100845.84
2018-05-21T09:19:58.915Z,100840.69
2018-05-21T09:21:05.168Z,100838.24
2018-05-21T09:22:13.683Z,100841.80
2018-05-21T09:23:20.608Z,100836.38
2018-05-21T09:24:26.819Z,100834.95
2018-05-21T09:25:33.021Z,100837.42
2018-05-21T09:26:39.296Z,100837.53
2018-05-21T09:27:45.540Z,100831.31
2018-05-21T09:28:51.751Z,100831.06
2018-05-21T09:29:58.061Z,100824.13
2018-05-21T09:31:04.346Z,100822.39
2018-05-21T09:32:10.872Z,100822.09
2018-05-21T09:33:18.225Z,100822.38
2018-05-21T09:34:24.585Z,100822.86
2018-05-21T09:35:30.905Z,100819.22
2018-05-21T09:36:37.209Z,100820.02
2018-05-21T09:37:44.350Z,100817.77
2018-05-21T09:38:54.640Z,100815.86
2018-05-21T09:40:01.096Z,100809.75
2018-05-21T09:41:07.466Z,100819.00
2018-05-21T09:42:13.813Z,100814.95
2018-05-21T09:43:20.684Z,100821.37
2018-05-21T09:44:27.026Z,100828.37
2018-05-21T09:45:33.129Z,100823.43
2018-05-21T09:46:39.449Z,100812.66
2018-05-21T09:47:45.725Z,100821.30
2018-05-21T09:48:52.036Z,100817.83
2018-05-21T09:49:58.039Z,100811.80
2018-05-21T09:51:04.365Z,100815.27
2018-05-21T09:52:10.706Z,100811.96
2018-05-21T09:53:17.032Z,100810.25
2018-05-21T09:54:23.641Z,100806.56
2018-05-21T09:55:30.733Z,100804.22
2018-05-21T09:56:37.446Z,100811.58
2018-05-21T09:57:43.681Z,100810.07
2018-05-21T09:58:51.244Z,100811.89
2018-05-21T10:00:04.574Z,100811.62
2018-05-21T10:01:12.781Z,100812.38
2018-05-21T10:02:20.356Z,100810.02
2018-05-21T10:03:27.213Z,100810.20
2018-05-21T10:04:34.125Z,100810.36
2018-05-21T10:05:40.488Z,100803.73
2018-05-21T10:06:46.766Z,100801.06
2018-05-21T10:07:53.073Z,100795.77
2018-05-21T10:08:59.396Z,100797.10
2018-05-21T10:10:05.576Z,100796.45
2018-05-21T10:11:11.928Z,100787.48
2018-05-21T10:12:18.229Z,100790.64
2018-05-21T10:13:24.562Z,100789.20
2018-05-21T10:14:30.860Z,100783.73
2018-05-21T10:15:38.421Z,100784.18
2018-05-21T10:16:44.624Z,100787.69
2018-05-21T10:17:50.938Z,100786.84
2018-05-21T10:18:57.201Z,100779.83
2018-05-21T10:20:03.512Z,100781.36
2018-05-21T10:21:10.104Z,100775.78
2018-05-21T10:22:16.646Z,100778.98
2018-05-21T10:23:22.865Z,100780.17
2018-05-21T10:24:29.171Z,100773.57
2018-05-21T10:25:36.323Z,100771.50
2018-05-21T10:26:43.076Z,100768.69
2018-05-21T10:27:49.374Z,100769.13
2018-05-21T10:28:55.672Z,100762.71
2018-05-21T10:30:01.957Z,100764.44
2018-05-21T10:31:08.246Z,100764.00
2018-05-21T10:32:14.510Z,100766.45
2018-05-21T10:33:20.778Z,100767.12
2018-05-21T10:34:27.102Z,100759.19
2018-05-21T10:35:33.431Z,100760.02
2018-05-21T10:36:39.767Z,100760.47
2018-05-21T10:37:46.069Z,100758.03
2018-05-21T10:38:52.556Z,100755.52
2018-05-21T10:39:58.857Z,100759.76
2018-05-21T10:41:04.964Z,100755.39
2018-05-21T10:42:12.138Z,100751.44
2018-05-21T10:43:18.437Z,100753.84
2018-05-21T10:44:25.645Z,100743.28
2018-05-21T10:45:32.017Z,100733.02
2018-05-21T10:46:38.545Z,100749.88
2018-05-21T10:47:45.050Z,100752.34
2018-05-21T10:48:51.309Z,100753.59
2018-05-21T10:49:57.621Z,100745.02
2018-05-21T10:51:03.935Z,100745.97
2018-05-21T10:52:10.271Z,100748.83
2018-05-21T10:53:16.604Z,100742.05
2018-05-21T10:54:22.887Z,100749.00
2018-05-21T10:55:29.467Z,100748.19
2018-05-21T10:56:35.851Z,100741.47
2018-05-21T10:57:44.655Z,100737.36
2018-05-21T10:58:51.165Z,100733.32
2018-05-21T10:59:57.398Z,100742.17
2018-05-21T11:01:03.713Z,100737.19
2018-05-21T11:02:10.130Z,100737.73
2018-05-21T11:03:20.384Z,100734.93
2018-05-21T11:04:26.637Z,100729.69
2018-05-21T11:05:32.968Z,100732.56
2018-05-21T11:06:40.076Z,100730.98
2018-05-21T11:07:46.416Z,100730.55
2018-05-21T11:08:52.802Z,100733.98
2018-05-21T11:09:59.346Z,100729.06
2018-05-21T11:11:05.679Z,100730.22
2018-05-21T11:12:11.995Z,100718.12
2018-05-21T11:13:18.477Z,100716.92
2018-05-21T11:14:24.853Z,100710.95
2018-05-21T11:15:31.830Z,100715.90
2018-05-21T11:16:38.162Z,100714.98
2018-05-21T11:17:47.022Z,100707.56
2018-05-21T11:18:54.192Z,100715.46
2018-05-21T11:20:00.708Z,100703.91
2018-05-21T11:21:07.933Z,100705.17
2018-05-21T11:22:14.165Z,100704.41
2018-05-21T11:23:20.488Z,100705.05
2018-05-21T11:24:26.697Z,100694.19
2018-05-21T11:25:33.120Z,100703.65
2018-05-21T11:26:39.490Z,100704.33
2018-05-21T11:27:45.761Z,100704.33
2018-05-21T11:28:52.186Z,100697.99
2018-05-21T11:29:58.473Z,100693.36
2018-05-21T11:31:04.778Z,100688.50
2018-05-21T11:32:11.085Z,100687.66
2018-05-21T11:33:17.137Z,100692.37
2018-05-21T11:34:23.414Z,100687.86
2018-05-21T11:35:29.710Z,100675.45
2018-05-21T11:36:36.066Z,100674.84
2018-05-21T11:37:42.333Z,100678.66
2018-05-21T11:38:49.502Z,100669.61
2018-05-21T11:39:56.305Z,100675.41
2018-05-21T11:41:02.613Z,100675.44
2018-05-21T11:42:08.750Z,100677.84
2018-05-21T11:43:14.962Z,100672.59
2018-05-21T11:45:41.704Z,100671.94
2018-05-21T11:46:48.018Z,100671.01
2018-05-21T11:47:54.288Z,100669.61
2018-05-21T11:49:00.522Z,100675.33
2018-05-21T11:50:06.551Z,100673.30
2018-05-21T11:51:12.938Z,100667.36
2018-05-21T11:52:19.264Z,100664.27
2018-05-21T11:53:25.569Z,100665.31
2018-05-21T11:54:32.413Z,100666.66
2018-05-21T11:55:39.687Z,100660.39
2018-05-21T11:56:45.971Z,100666.73
2018-05-21T11:57:52.276Z,100665.41
2018-05-21T11:58:58.585Z,100656.52
2018-05-21T12:00:04.110Z,100659.62
2018-05-21T12:01:10.395Z,100656.59
2018-05-21T12:02:16.313Z,100653.00
2018-05-21T12:03:22.766Z,100660.05
2018-05-21T12:04:29.889Z,100656.81
2018-05-21T12:05:37.926Z,100653.86
2018-05-21T12:06:46.532Z,100653.16
2018-05-21T12:07:52.825Z,100654.13
2018-05-21T12:08:59.158Z,100649.70
2018-05-21T12:10:05.138Z,100653.05
2018-05-21T12:11:11.441Z,100639.14
2018-05-21T12:12:17.799Z,100644.25
2018-05-21T12:13:24.022Z,100644.05
2018-05-21T12:14:30.299Z,100639.12
2018-05-21T12:15:36.608Z,100646.11
2018-05-21T12:16:44.706Z,100642.30
2018-05-21T12:17:50.970Z,100635.66
2018-05-21T12:18:57.297Z,100629.69
2018-05-21T12:20:03.260Z,100635.48
2018-05-21T12:21:09.500Z,100639.19
2018-05-21T12:22:15.805Z,100643.02
2018-05-21T12:23:22.641Z,100634.00
2018-05-21T12:24:28.643Z,100636.58
2018-05-21T12:25:35.109Z,100633.72
2018-05-21T12:26:42.775Z,100629.21
2018-05-21T12:27:51.472Z,100632.09
2018-05-21T12:28:57.805Z,100629.47
2018-05-21T12:30:03.905Z,100628.70
2018-05-21T12:31:10.177Z,100623.19
2018-05-21T12:32:16.441Z,100632.18
2018-05-21T12:33:22.341Z,100627.19
2018-05-21T12:34:29.335Z,100624.70
2018-05-21T12:35:35.688Z,100625.19
2018-05-21T12:36:41.986Z,100632.90
2018-05-21T12:37:48.252Z,100628.69
2018-05-21T12:38:54.612Z,100627.05
2018-05-21T12:40:00.912Z,100628.98
2018-05-21T12:41:07.328Z,100623.41
2018-05-21T12:42:14.410Z,100624.45
2018-05-21T12:43:20.636Z,100626.56
2018-05-21T12:44:26.965Z,100625.55